createdAt,value
2023-02-18T00:01:23.782Z,2.88
2023-02-18T00:03:51.305Z,2.65
2023-02-18T00:06:25.406Z,2.33
2023-02-18T00:08:53.317Z,2.97
2023-02-18T00:11:21.839Z,2.92
2023-02-18T00:13:53.268Z,3.40
2023-02-18T00:16:21.434Z,3.55
2023-02-18T00:18:48.610Z,3.05
2023-02-18T00:21:15.905Z,3.40
2023-02-18T00:23:44.037Z,4.28
2023-02-18T00:26:16.223Z,4.22
2023-02-18T00:28:43.527Z,5.18
2023-02-18T00:31:13.346Z,4.28
2023-02-18T00:33:42.455Z,3.78
2023-02-18T00:36:12.896Z,3.80
2023-02-18T00:38:40.155Z,3.92
2023-02-18T00:41:06.974Z,3.03
2023-02-18T00:43:33.707Z,3.90
2023-02-18T00:46:00.564Z,4.07
2023-02-18T00:48:27.516Z,3.45
2023-02-18T00:50:54.342Z,3.75
2023-02-18T00:53:22.673Z,3.20
2023-02-18T00:55:49.499Z,3.65
2023-02-18T00:58:16.649Z,3.15
2023-02-18T01:00:43.831Z,2.70
2023-02-18T01:03:11.052Z,2.40
2023-02-18T01:05:39.073Z,2.65
2023-02-18T01:08:07.037Z,2.78
2023-02-18T01:10:35.100Z,2.95
2023-02-18T01:13:04.221Z,3.22
2023-02-18T01:15:31.421Z,2.63
2023-02-18T01:17:58.347Z,2.67
2023-02-18T01:20:25.560Z,3.00
2023-02-18T01:22:52.619Z,2.42
2023-02-18T01:25:19.435Z,2.72
2023-02-18T01:27:46.244Z,2.33
2023-02-18T01:30:16.083Z,1.98
2023-02-18T01:32:43.427Z,2.72
2023-02-18T01:35:15.642Z,1.90
2023-02-18T01:37:43.012Z,1.85
2023-02-18T01:40:12.786Z,2.28
2023-02-18T01:42:40.263Z,1.90
2023-02-18T01:45:55.255Z,1.80
2023-02-18T01:48:26.566Z,1.80
2023-02-18T01:51:13.572Z,1.70
2023-02-18T01:53:57.440Z,1.80
2023-02-18T01:56:35.035Z,1.70
2023-02-18T01:59:05.806Z,1.65
2023-02-18T02:01:33.413Z,2.00
2023-02-18T02:04:00.265Z,2.22
2023-02-18T02:06:27.015Z,1.75
2023-02-18T02:08:58.359Z,2.63
2023-02-18T02:11:43.300Z,1.80
2023-02-18T02:14:23.128Z,2.00
2023-02-18T02:17:08.100Z,1.92
2023-02-18T02:19:53.666Z,1.95
2023-02-18T02:22:44.572Z,1.70
2023-02-18T02:25:52.634Z,1.83
2023-02-18T02:28:48.997Z,1.67
2023-02-18T02:31:34.558Z,2.00
2023-02-18T02:34:16.869Z,1.70
2023-02-18T02:36:55.105Z,1.77
2023-02-18T02:39:37.956Z,1.50
2023-02-18T02:42:12.240Z,1.58
2023-02-18T02:44:55.125Z,1.40
2023-02-18T02:47:33.329Z,1.25
2023-02-18T02:50:21.503Z,1.40
2023-02-18T02:52:52.220Z,1.42
2023-02-18T02:55:19.062Z,1.20
2023-02-18T02:57:49.133Z,1.33
2023-02-18T03:00:19.485Z,1.00
2023-02-18T03:02:46.335Z,1.13
2023-02-18T03:05:28.201Z,1.00
2023-02-18T03:08:10.008Z,0.90
2023-02-18T03:11:02.680Z,0.95
2023-02-18T03:13:54.683Z,0.90
2023-02-18T03:16:44.446Z,0.65
2023-02-18T03:19:19.266Z,0.60
2023-02-18T03:21:53.377Z,0.68
2023-02-18T03:24:25.665Z,0.80
2023-02-18T03:26:56.533Z,0.63
2023-02-18T03:29:23.697Z,0.65
2023-02-18T03:31:56.904Z,0.30
2023-02-18T03:34:30.271Z,0.40
2023-02-18T03:36:59.782Z,0.30
2023-02-18T03:39:29.722Z,0.28
2023-02-18T03:41:56.743Z,0.30
2023-02-18T03:44:25.637Z,0.20
2023-02-18T03:46:53.433Z,0.20
2023-02-18T03:49:20.575Z,0.47
2023-02-18T03:51:47.523Z,0.20
2023-02-18T03:54:14.680Z,0.20
2023-02-18T03:56:42.711Z,0.20
2023-02-18T03:59:11.294Z,0.10
2023-02-18T04:01:38.312Z,0.10
2023-02-18T04:04:05.339Z,0.10
2023-02-18T04:06:32.187Z,0.10
2023-02-18T04:08:59.066Z,0.10
2023-02-18T04:11:26.079Z,0.10
2023-02-18T04:13:53.374Z,0.32
2023-02-18T04:16:20.107Z,0.10
2023-02-18T04:18:46.898Z,0.10
2023-02-18T04:21:13.692Z,0.10
2023-02-18T04:23:40.503Z,0.10
2023-02-18T04:26:07.619Z,0.10
2023-02-18T04:28:34.666Z,0.10
2023-02-18T04:31:01.667Z,0.20
2023-02-18T04:33:28.633Z,0.10
2023-02-18T04:35:55.340Z,0.10
2023-02-18T04:38:22.203Z,0.10
2023-02-18T04:40:49.120Z,0.10
2023-02-18T04:43:15.904Z,0.10
2023-02-18T04:45:42.749Z,0.10
2023-02-18T04:48:09.554Z,0.30
2023-02-18T04:50:36.460Z,0.00
2023-02-18T04:53:03.278Z,0.10
2023-02-18T04:55:30.056Z,0.20
2023-02-18T04:57:56.821Z,0.20
2023-02-18T05:00:23.899Z,0.10
2023-02-18T05:02:50.700Z,0.13
2023-02-18T05:05:17.609Z,0.10
2023-02-18T05:07:44.459Z,0.10
2023-02-18T05:10:16.285Z,0.10
2023-02-18T05:12:43.068Z,0.08
2023-02-18T05:15:10.402Z,0.10
2023-02-18T05:17:37.474Z,0.20
2023-02-18T05:20:04.483Z,0.17
2023-02-18T05:22:31.263Z,0.20
2023-02-18T05:24:58.079Z,0.10
2023-02-18T05:27:24.920Z,0.10
2023-02-18T05:29:51.689Z,0.10
2023-02-18T05:32:18.580Z,0.10
2023-02-18T05:34:45.387Z,0.10
2023-02-18T05:37:13.734Z,0.10
2023-02-18T05:39:41.599Z,0.10
2023-02-18T05:42:08.524Z,0.10
2023-02-18T05:44:35.364Z,0.20
2023-02-18T05:47:11.585Z,0.10
2023-02-18T05:49:40.151Z,0.10
2023-02-18T05:52:07.486Z,0.10
2023-02-18T05:54:35.638Z,0.10
2023-02-18T05:57:03.415Z,0.15
2023-02-18T05:59:30.776Z,0.10
2023-02-18T06:01:58.019Z,0.20
2023-02-18T06:04:25.100Z,0.20
2023-02-18T06:06:52.113Z,0.10
2023-02-18T06:09:18.882Z,0.15
2023-02-18T06:11:45.945Z,0.50
2023-02-18T06:14:12.840Z,0.10
2023-02-18T06:16:39.597Z,0.10
2023-02-18T06:19:06.407Z,0.20
2023-02-18T06:21:33.287Z,0.20
2023-02-18T06:24:00.140Z,0.10
2023-02-18T06:26:27.358Z,0.20
2023-02-18T06:28:54.251Z,0.20
2023-02-18T06:31:21.333Z,0.20
2023-02-18T06:33:48.232Z,0.28
2023-02-18T06:36:15.185Z,0.10
2023-02-18T06:38:45.204Z,0.10
2023-02-18T06:41:13.656Z,0.10
2023-02-18T06:43:40.789Z,0.20
2023-02-18T06:46:08.351Z,0.10
2023-02-18T06:48:35.548Z,0.10
2023-02-18T06:51:02.438Z,0.20
2023-02-18T06:53:29.158Z,0.50
2023-02-18T06:55:56.210Z,0.40
2023-02-18T06:58:23.464Z,0.30
2023-02-18T07:00:50.457Z,0.20
2023-02-18T07:03:17.646Z,0.20
2023-02-18T07:05:44.498Z,0.10
2023-02-18T07:08:11.900Z,0.20
2023-02-18T07:10:39.229Z,0.20
2023-02-18T07:13:06.445Z,0.10
2023-02-18T07:15:33.223Z,0.30
2023-02-18T07:18:00.271Z,0.20
2023-02-18T07:20:28.020Z,0.28
2023-02-18T07:22:55.107Z,0.15
2023-02-18T07:25:23.427Z,0.15
2023-02-18T07:27:51.207Z,0.10
2023-02-18T07:30:19.430Z,0.30
2023-02-18T07:32:46.469Z,0.20
2023-02-18T07:35:15.813Z,0.30
2023-02-18T07:37:50.015Z,0.30
2023-02-18T07:40:20.189Z,0.20
2023-02-18T07:42:47.220Z,0.20
2023-02-18T07:45:14.739Z,0.30
2023-02-18T07:47:42.626Z,0.22
2023-02-18T07:50:10.248Z,0.20
2023-02-18T07:52:37.208Z,0.20
2023-02-18T07:55:04.293Z,0.20
2023-02-18T07:57:31.463Z,0.20
2023-02-18T07:59:58.473Z,0.30
2023-02-18T08:02:46.871Z,0.20
2023-02-18T08:05:13.896Z,0.20
2023-02-18T08:07:41.280Z,0.60
2023-02-18T08:10:08.416Z,0.20
2023-02-18T08:12:37.635Z,0.35
2023-02-18T08:15:05.149Z,0.30
2023-02-18T08:17:31.921Z,0.35
2023-02-18T08:19:58.758Z,0.30
2023-02-18T08:22:25.584Z,0.32
2023-02-18T08:24:55.917Z,0.28
2023-02-18T08:27:24.259Z,0.40
2023-02-18T08:29:51.271Z,0.40
2023-02-18T08:32:18.393Z,0.30
2023-02-18T08:34:45.253Z,0.43
2023-02-18T08:37:12.198Z,0.30
2023-02-18T08:39:39.994Z,0.40
2023-02-18T08:42:07.056Z,0.40
2023-02-18T08:44:34.266Z,0.35
2023-02-18T08:47:01.433Z,0.55
2023-02-18T08:49:28.350Z,0.65
2023-02-18T08:51:55.881Z,0.80
2023-02-18T08:54:23.159Z,1.00
2023-02-18T08:56:50.077Z,1.25
2023-02-18T08:59:16.941Z,1.65
2023-02-18T09:01:43.800Z,1.60
2023-02-18T09:04:10.684Z,1.50
2023-02-18T09:06:38.630Z,1.58
2023-02-18T09:09:05.608Z,1.17
2023-02-18T09:11:33.283Z,1.20
2023-02-18T09:14:00.200Z,1.40
2023-02-18T09:16:28.272Z,1.42
2023-02-18T09:18:55.592Z,1.05
2023-02-18T09:21:23.401Z,1.30
2023-02-18T09:23:51.204Z,1.08
2023-02-18T09:26:21.566Z,1.30
2023-02-18T09:28:49.381Z,0.90
2023-02-18T09:31:20.714Z,0.77
2023-02-18T09:33:54.914Z,1.00
2023-02-18T09:36:24.387Z,0.80
2023-02-18T09:38:51.628Z,1.20
2023-02-18T09:41:39.424Z,1.55
2023-02-18T09:44:27.994Z,1.30
2023-02-18T09:47:20.368Z,1.45
2023-02-18T09:49:55.364Z,1.60
2023-02-18T09:52:32.747Z,1.48
2023-02-18T09:54:59.890Z,2.03
2023-02-18T09:57:35.437Z,1.67
2023-02-18T10:00:18.808Z,1.92
2023-02-18T10:02:58.381Z,1.98
2023-02-18T10:05:27.797Z,1.75
2023-02-18T10:08:00.281Z,2.08
2023-02-18T10:10:47.390Z,1.90
2023-02-18T10:13:23.008Z,2.08
2023-02-18T10:15:51.782Z,2.10
2023-02-18T10:18:22.289Z,1.77
2023-02-18T10:20:51.113Z,1.80
2023-02-18T10:23:23.469Z,1.85
2023-02-18T10:25:51.286Z,1.70
2023-02-18T10:28:23.549Z,1.83
2023-02-18T10:30:59.693Z,1.50
2023-02-18T10:33:36.376Z,2.10
2023-02-18T10:36:30.498Z,1.38
2023-02-18T10:39:09.366Z,1.17
2023-02-18T10:42:18.147Z,1.50
2023-02-18T10:44:53.640Z,1.77
2023-02-18T10:47:28.115Z,1.50
2023-02-18T10:50:01.025Z,1.98
2023-02-18T10:55:09.498Z,1.65
2023-02-18T10:57:50.197Z,1.70
2023-02-18T11:00:40.475Z,1.55
2023-02-18T11:03:14.874Z,1.85
2023-02-18T11:05:42.656Z,1.10
2023-02-18T11:08:15.350Z,1.20
2023-02-18T11:10:45.274Z,1.13
2023-02-18T11:13:16.443Z,1.08
2023-02-18T11:15:59.791Z,1.13
2023-02-18T11:18:26.632Z,0.95
2023-02-18T11:21:01.771Z,1.25
2023-02-18T11:23:28.728Z,1.17
2023-02-18T11:26:00.868Z,1.42
2023-02-18T11:28:44.251Z,1.17
2023-02-18T11:31:17.977Z,1.15
2023-02-18T11:33:50.550Z,1.42
2023-02-18T11:36:36.229Z,1.35
2023-02-18T11:39:24.568Z,1.30
2023-02-18T11:42:04.466Z,0.88
2023-02-18T11:44:41.461Z,1.20
2023-02-18T11:47:14.322Z,0.90
2023-02-18T11:49:43.664Z,1.08
2023-02-18T11:52:35.161Z,1.15
2023-02-18T11:55:17.911Z,1.50
2023-02-18T11:58:00.236Z,1.38
2023-02-18T12:00:36.016Z,1.60
2023-02-18T12:03:08.586Z,2.00
2023-02-18T12:05:38.206Z,1.40
2023-02-18T12:08:23.074Z,1.20
2023-02-18T12:11:21.023Z,1.40
2023-02-18T12:13:56.978Z,1.40
2023-02-18T12:16:28.763Z,1.60
2023-02-18T12:19:02.183Z,1.35
2023-02-18T12:21:35.102Z,1.70
2023-02-18T12:27:10.089Z,1.80
2023-02-18T12:30:02.040Z,1.10
2023-02-18T12:32:50.896Z,1.25
2023-02-18T12:35:32.856Z,0.90
2023-02-18T12:38:38.694Z,1.00
2023-02-18T12:41:30.219Z,0.85
2023-02-18T12:44:10.868Z,1.10
2023-02-18T12:47:04.930Z,0.65
2023-02-18T12:50:05.604Z,0.77
2023-02-18T12:53:01.631Z,0.85
2023-02-18T12:55:48.925Z,1.15
2023-02-18T12:58:42.013Z,0.80
2023-02-18T13:01:25.250Z,0.90
2023-02-18T13:04:43.662Z,0.82
2023-02-18T13:07:48.043Z,0.70
2023-02-18T13:10:34.609Z,0.43
2023-02-18T13:13:23.780Z,0.70
2023-02-18T13:15:56.077Z,0.90
2023-02-18T13:18:49.597Z,0.73
2023-02-18T13:21:17.419Z,0.88
2023-02-18T13:23:57.681Z,0.80
2023-02-18T13:26:26.472Z,0.80
2023-02-18T13:29:26.440Z,0.65
2023-02-18T13:32:00.628Z,0.80
2023-02-18T13:35:00.394Z,0.95
2023-02-18T13:37:38.357Z,0.75
2023-02-18T13:40:14.291Z,0.90
2023-02-18T13:42:41.214Z,0.93
2023-02-18T13:45:30.316Z,0.80
2023-02-18T13:47:59.268Z,1.00
2023-02-18T13:50:30.232Z,0.85
2023-02-18T13:53:09.391Z,1.05
2023-02-18T13:56:02.410Z,0.95
2023-02-18T13:58:35.853Z,0.77
2023-02-18T14:01:11.863Z,0.77
2023-02-18T14:03:45.222Z,1.00
2023-02-18T14:06:34.450Z,0.90
2023-02-18T14:09:13.618Z,1.08
2023-02-18T14:11:46.870Z,0.82
2023-02-18T14:14:25.810Z,0.60
2023-02-18T14:17:20.839Z,0.70
2023-02-18T14:20:14.045Z,0.50
2023-02-18T14:22:52.304Z,0.85
2023-02-18T14:25:27.129Z,0.60
2023-02-18T14:27:54.686Z,0.57
2023-02-18T14:30:36.184Z,0.57
2023-02-18T14:33:03.163Z,0.50
2023-02-18T14:35:57.019Z,0.50
2023-02-18T14:38:49.817Z,0.50
2023-02-18T14:41:35.472Z,0.40
2023-02-18T14:44:27.552Z,0.40
2023-02-18T14:47:24.868Z,0.25
2023-02-18T14:50:03.633Z,0.30
2023-02-18T14:52:32.211Z,0.50
2023-02-18T14:55:01.986Z,0.43
2023-02-18T14:57:34.737Z,0.45
2023-02-18T15:00:01.803Z,0.52
2023-02-18T15:02:31.101Z,0.35
2023-02-18T15:05:19.602Z,0.32
2023-02-18T15:08:03.987Z,0.60
2023-02-18T15:10:53.176Z,0.40
2023-02-18T15:13:28.412Z,0.40
2023-02-18T15:15:58.789Z,0.35
2023-02-18T15:18:49.825Z,0.40
2023-02-18T15:21:31.876Z,0.35
2023-02-18T15:24:18.922Z,0.30
2023-02-18T15:26:50.572Z,0.20
2023-02-18T15:29:26.428Z,0.55
2023-02-18T15:31:55.660Z,0.30
2023-02-18T15:34:31.410Z,0.30
2023-02-18T15:37:00.741Z,0.30
2023-02-18T15:39:28.259Z,0.20
2023-02-18T15:41:57.782Z,0.40
2023-02-18T15:44:27.939Z,0.20
2023-02-18T15:46:55.008Z,0.40
2023-02-18T15:49:24.649Z,0.30
2023-02-18T15:51:56.730Z,0.40
2023-02-18T15:54:24.108Z,0.60
2023-02-18T15:56:54.429Z,0.40
2023-02-18T15:59:35.483Z,0.40
2023-02-18T16:02:08.371Z,0.70
2023-02-18T16:07:20.487Z,0.40
2023-02-18T16:09:47.357Z,0.60
2023-02-18T16:12:27.919Z,0.50
2023-02-18T16:14:55.899Z,0.50
2023-02-18T16:17:26.015Z,0.40
2023-02-18T16:20:04.308Z,0.50
2023-02-18T16:22:32.282Z,0.60
2023-02-18T16:25:21.444Z,0.50
2023-02-18T16:27:55.438Z,0.40
2023-02-18T16:30:26.090Z,0.60
2023-02-18T16:32:54.238Z,0.73
2023-02-18T16:35:22.631Z,0.60
2023-02-18T16:37:52.849Z,0.52
2023-02-18T16:40:27.124Z,0.88
2023-02-18T16:42:55.099Z,0.70
2023-02-18T16:45:30.770Z,0.70
2023-02-18T16:47:57.915Z,0.80
2023-02-18T16:50:24.751Z,0.60
2023-02-18T16:52:51.996Z,0.80
2023-02-18T16:55:25.808Z,0.80
2023-02-18T16:57:55.102Z,0.90
2023-02-18T17:00:23.832Z,0.60
2023-02-18T17:02:54.951Z,0.73
2023-02-18T17:05:28.969Z,1.10
2023-02-18T17:08:19.050Z,0.82
2023-02-18T17:10:48.510Z,0.80
2023-02-18T17:13:21.180Z,1.00
2023-02-18T17:15:50.463Z,0.73
2023-02-18T17:18:17.506Z,0.60
2023-02-18T17:20:44.941Z,1.00
2023-02-18T17:23:16.136Z,0.77
2023-02-18T17:25:43.294Z,0.80
2023-02-18T17:28:10.431Z,0.60
2023-02-18T17:30:40.148Z,1.00
2023-02-18T17:33:07.709Z,1.10
2023-02-18T17:35:34.504Z,0.95
2023-02-18T17:38:01.330Z,0.90
2023-02-18T17:40:28.897Z,0.90
2023-02-18T17:42:56.398Z,1.08
2023-02-18T17:45:29.623Z,0.70
2023-02-18T17:47:57.204Z,0.98
2023-02-18T17:50:25.190Z,1.20
2023-02-18T17:52:52.174Z,1.00
2023-02-18T17:55:31.646Z,0.70
2023-02-18T17:57:58.860Z,0.70
2023-02-18T18:00:34.917Z,1.02
2023-02-18T18:03:02.471Z,0.80
2023-02-18T18:05:33.138Z,1.40
2023-02-18T18:08:01.154Z,0.80
2023-02-18T18:10:32.147Z,0.85
2023-02-18T18:13:02.761Z,0.82
2023-02-18T18:15:41.715Z,0.98
2023-02-18T18:18:10.562Z,0.88
2023-02-18T18:20:38.713Z,0.60
2023-02-18T18:23:07.347Z,0.90
2023-02-18T18:25:49.166Z,1.60
2023-02-18T18:28:16.057Z,1.50
2023-02-18T18:30:46.145Z,1.33
2023-02-18T18:33:19.157Z,1.30
2023-02-18T18:38:14.716Z,1.98
2023-02-18T18:40:42.026Z,2.47
2023-02-18T18:43:18.104Z,2.15
2023-02-18T18:45:45.074Z,1.80
2023-02-18T18:48:12.240Z,1.50
2023-02-18T18:50:39.957Z,1.05
2023-02-18T18:53:07.652Z,1.05
2023-02-18T18:55:37.894Z,0.98
2023-02-18T18:58:05.019Z,0.80
2023-02-18T19:00:37.984Z,0.80
2023-02-18T19:03:06.176Z,0.90
2023-02-18T19:05:39.231Z,0.88
2023-02-18T19:10:38.768Z,0.80
2023-02-18T19:13:08.473Z,0.98
2023-02-18T19:15:35.394Z,0.50
2023-02-18T19:18:06.216Z,0.70
2023-02-18T19:20:38.305Z,1.25
2023-02-18T19:23:05.554Z,0.90
2023-02-18T19:25:32.582Z,0.70
2023-02-18T19:27:59.335Z,0.70
2023-02-18T19:30:29.573Z,0.60
2023-02-18T19:32:58.718Z,0.68
2023-02-18T19:35:28.077Z,0.50
2023-02-18T19:37:55.413Z,0.60
2023-02-18T19:40:25.527Z,0.63
2023-02-18T19:42:52.445Z,0.68
2023-02-18T19:45:19.752Z,0.70
2023-02-18T19:47:46.638Z,0.60
2023-02-18T19:50:15.773Z,0.45
2023-02-18T19:52:43.092Z,0.55
2023-02-18T19:55:10.493Z,0.65
2023-02-18T19:57:37.868Z,0.60
2023-02-18T20:00:10.283Z,0.70
2023-02-18T20:02:37.407Z,0.93
2023-02-18T20:05:04.449Z,1.50
2023-02-18T20:07:31.854Z,0.90
2023-02-18T20:09:58.738Z,0.70
2023-02-18T20:12:25.818Z,0.80
2023-02-18T20:14:52.797Z,0.60
2023-02-18T20:17:20.011Z,0.77
2023-02-18T20:19:47.312Z,0.52
2023-02-18T20:22:14.418Z,0.77
2023-02-18T20:24:41.331Z,0.95
2023-02-18T20:27:09.450Z,0.88
2023-02-18T20:29:36.672Z,0.50
2023-02-18T20:32:04.673Z,0.70
2023-02-18T20:34:33.056Z,0.98
2023-02-18T20:37:00.606Z,0.80
2023-02-18T20:39:27.956Z,0.77
2023-02-18T20:41:54.909Z,0.70
2023-02-18T20:44:22.316Z,0.65
2023-02-18T20:46:50.072Z,0.70
2023-02-18T20:49:20.087Z,0.50
2023-02-18T20:51:47.256Z,0.40
2023-02-18T20:54:19.445Z,0.90
2023-02-18T20:56:48.762Z,0.50
2023-02-18T20:59:18.380Z,0.65
2023-02-18T21:01:46.401Z,0.60
2023-02-18T21:04:15.546Z,0.68
2023-02-18T21:06:42.725Z,0.60
2023-02-18T21:09:09.688Z,1.20
2023-02-18T21:11:36.681Z,0.73
2023-02-18T21:14:04.817Z,0.73
2023-02-18T21:16:38.811Z,0.70
2023-02-18T21:19:13.253Z,0.70
2023-02-18T21:21:40.960Z,0.80
2023-02-18T21:24:08.104Z,0.70
2023-02-18T21:26:35.419Z,0.77
2023-02-18T21:29:05.820Z,7.65
2023-02-18T21:31:38.453Z,0.98
2023-02-18T21:34:07.568Z,0.70
2023-02-18T21:36:34.915Z,0.50
2023-02-18T21:39:06.450Z,0.80
2023-02-18T21:41:35.077Z,0.60
2023-02-18T21:44:02.520Z,0.50
2023-02-18T21:46:33.896Z,0.55
2023-02-18T21:49:07.129Z,0.80
2023-02-18T21:51:59.413Z,0.47
2023-02-18T21:54:36.929Z,0.47
2023-02-18T21:57:06.082Z,0.50
2023-02-18T21:59:34.841Z,0.73
2023-02-18T22:02:03.050Z,0.70
2023-02-18T22:04:33.121Z,0.80
2023-02-18T22:07:00.626Z,0.60
2023-02-18T22:09:27.983Z,0.68
2023-02-18T22:11:58.511Z,0.70
2023-02-18T22:14:25.562Z,0.90
2023-02-18T22:16:52.634Z,0.60
2023-02-18T22:19:19.604Z,0.77
2023-02-18T22:21:46.893Z,0.82
2023-02-18T22:24:15.221Z,0.80
2023-02-18T22:26:43.958Z,0.90
2023-02-18T22:29:12.616Z,0.90
2023-02-18T22:31:39.947Z,1.10
2023-02-18T22:34:07.373Z,1.00
2023-02-18T22:36:34.196Z,0.80
2023-02-18T22:39:01.600Z,0.52
2023-02-18T22:41:30.266Z,0.68
2023-02-18T22:43:59.725Z,0.50
2023-02-18T22:46:27.745Z,0.65
2023-02-18T22:48:59.245Z,0.90
2023-02-18T22:51:30.602Z,0.60
2023-02-18T22:53:59.283Z,0.60
2023-02-18T22:56:27.776Z,0.60
2023-02-18T22:58:55.899Z,0.80
2023-02-18T23:01:25.891Z,0.70
2023-02-18T23:03:53.582Z,0.47
2023-02-18T23:06:21.306Z,0.80
2023-02-18T23:08:49.011Z,0.80
2023-02-18T23:11:19.097Z,0.50
2023-02-18T23:14:06.905Z,0.77
2023-02-18T23:16:54.686Z,0.60
2023-02-18T23:19:22.231Z,0.50
2023-02-18T23:21:49.421Z,0.50
2023-02-18T23:24:16.416Z,0.60
2023-02-18T23:26:43.480Z,0.30
2023-02-18T23:29:10.779Z,0.50
2023-02-18T23:31:38.030Z,0.40
2023-02-18T23:34:06.934Z,0.40
2023-02-18T23:36:36.256Z,0.50
2023-02-18T23:39:08.226Z,0.60
2023-02-18T23:41:36.373Z,0.57
2023-02-18T23:44:08.627Z,0.47
2023-02-18T23:46:37.261Z,0.77
2023-02-18T23:49:05.068Z,1.15
2023-02-18T23:51:32.274Z,1.50
2023-02-18T23:54:02.161Z,2.17
2023-02-18T23:56:29.030Z,2.47
2023-02-18T23:59:00.524Z,1.02
